sensor_id;sensor_type;location;lat;lon;timestamp;pressure;altitude;pressure_sealevel;temperature;humidity
11710;BME280;5911;51.036;6.972;2023-06-24T00:00:09;101625.25;;;21.83;100.00
11710;BME280;5911;51.036;6.972;2023-06-24T00:02:38;101615.03;;;21.78;100.00
11710;BME280;5911;51.036;6.972;2023-06-24T00:05:10;101612.84;;;21.73;100.00
11710;BME280;5911;51.036;6.972;2023-06-24T00:07:38;101606.16;;;21.69;100.00
11710;BME280;5911;51.036;6.972;2023-06-24T00:10:11;101619.41;;;21.71;100.00
11710;BME280;5911;51.036;6.972;2023-06-24T00:12:41;101609.50;;;21.71;100.00
11710;BME280;5911;51.036;6.972;2023-06-24T00:15:09;101599.47;;;21.57;100.00
11710;BME280;5911;51.036;6.972;2023-06-24T00:17:37;101616.25;;;21.59;100.00
11710;BME280;5911;51.036;6.972;2023-06-24T00:20:06;101613.41;;;21.61;100.00
11710;BME280;5911;51.036;6.972;2023-06-24T00:22:40;101613.75;;;21.58;100.00
11710;BME280;5911;51.036;6.972;2023-06-24T00:25:10;101617.81;;;21.54;100.00
11710;BME280;5911;51.036;6.972;2023-06-24T00:27:38;101617.81;;;21.54;100.00
11710;BME280;5911;51.036;6.972;2023-06-24T00:30:10;101610.56;;;21.54;100.00
11710;BME280;5911;51.036;6.972;2023-06-24T00:32:38;101619.47;;;21.55;100.00
11710;BME280;5911;51.036;6.972;2023-06-24T00:35:06;101613.25;;;21.54;100.00
11710;BME280;5911;51.036;6.972;2023-06-24T00:37:34;101595.16;;;21.48;100.00
11710;BME280;5911;51.036;6.972;2023-06-24T00:40:02;101609.94;;;21.52;100.00
11710;BME280;5911;51.036;6.972;2023-06-24T00:42:32;101604.56;;;21.52;100.00
11710;BME280;5911;51.036;6.972;2023-06-24T00:45:00;101604.56;;;21.52;100.00
11710;BME280;5911;51.036;6.972;2023-06-24T00:47:33;101615.47;;;21.51;100.00
11710;BME280;5911;51.036;6.972;2023-06-24T00:50:01;101604.06;;;21.49;100.00
11710;BME280;5911;51.036;6.972;2023-06-24T00:52:30;101611.28;;;21.48;100.00
11710;BME280;5911;51.036;6.972;2023-06-24T00:54:57;101608.75;;;21.47;100.00
11710;BME280;5911;51.036;6.972;2023-06-24T00:57:25;101615.97;;;21.46;100.00
11710;BME280;5911;51.036;6.972;2023-06-24T00:59:56;101616.31;;;21.43;100.00
11710;BME280;5911;51.036;6.972;2023-06-24T01:02:26;101598.38;;;21.35;100.00
11710;BME280;5911;51.036;6.972;2023-06-24T01:04:56;101612.09;;;21.40;100.00
11710;BME280;5911;51.036;6.972;2023-06-24T01:07:24;101612.09;;;21.40;100.00
11710;BME280;5911;51.036;6.972;2023-06-24T01:09:52;101613.31;;;21.38;100.00
11710;BME280;5911;51.036;6.972;2023-06-24T01:12:21;101612.97;;;21.33;100.00
11710;BME280;5911;51.036;6.972;2023-06-24T01:14:49;101616.00;;;21.30;100.00
11710;BME280;5911;51.036;6.972;2023-06-24T01:17:21;101613.16;;;21.31;100.00
11710;BME280;5911;51.036;6.972;2023-06-24T01:20:04;101614.81;;;21.24;100.00
11710;BME280;5911;51.036;6.972;2023-06-24T01:23:04;101613.81;;;21.25;100.00
11710;BME280;5911;51.036;6.972;2023-06-24T01:25:47;101613.34;;;21.22;100.00
11710;BME280;5911;51.036;6.972;2023-06-24T01:28:41;101597.25;;;21.22;100.00
11710;BME280;5911;51.036;6.972;2023-06-24T01:31:31;101603.78;;;21.19;100.00
11710;BME280;5911;51.036;6.972;2023-06-24T01:34:06;101599.56;;;21.17;100.00
11710;BME280;5911;51.036;6.972;2023-06-24T01:36:37;101595.88;;;21.18;100.00
11710;BME280;5911;51.036;6.972;2023-06-24T01:39:08;101602.91;;;21.19;100.00
11710;BME280;5911;51.036;6.972;2023-06-24T01:41:56;101600.56;;;21.16;100.00
11710;BME280;5911;51.036;6.972;2023-06-24T01:44:27;101600.22;;;21.11;100.00
11710;BME280;5911;51.036;6.972;2023-06-24T01:46:59;101598.91;;;21.06;100.00
11710;BME280;5911;51.036;6.972;2023-06-24T01:49:28;101596.56;;;21.03;100.00
11710;BME280;5911;51.036;6.972;2023-06-24T01:51:58;101596.88;;;21.00;100.00
11710;BME280;5911;51.036;6.972;2023-06-24T01:54:28;101600.25;;;20.94;100.00
11710;BME280;5911;51.036;6.972;2023-06-24T01:56:59;101599.91;;;20.97;100.00
11710;BME280;5911;51.036;6.972;2023-06-24T01:59:29;101608.63;;;20.99;100.00
11710;BME280;5911;51.036;6.972;2023-06-24T02:02:00;101592.19;;;20.94;100.00
11710;BME280;5911;51.036;6.972;2023-06-24T02:04:28;101610.97;;;21.02;100.00
11710;BME280;5911;51.036;6.972;2023-06-24T02:07:00;101599.56;;;21.00;100.00
11710;BME280;5911;51.036;6.972;2023-06-24T02:09:29;101601.41;;;21.00;100.00
11710;BME280;5911;51.036;6.972;2023-06-24T02:12:01;101594.88;;;20.94;100.00
11710;BME280;5911;51.036;6.972;2023-06-24T02:14:31;101600.25;;;20.94;100.00
11710;BME280;5911;51.036;6.972;2023-06-24T02:17:03;101596.91;;;20.92;100.00
11710;BME280;5911;51.036;6.972;2023-06-24T02:19:33;101588.19;;;20.82;100.00
11710;BME280;5911;51.036;6.972;2023-06-24T02:22:03;101592.22;;;20.86;100.00
11710;BME280;5911;51.036;6.972;2023-06-24T02:24:37;101585.50;;;20.82;100.00
11710;BME280;5911;51.036;6.972;2023-06-24T02:27:06;101589.84;;;20.83;100.00
11710;BME280;5911;51.036;6.972;2023-06-24T02:29:35;101595.56;;;20.80;100.00
11710;BME280;5911;51.036;6.972;2023-06-24T02:32:06;101589.50;;;20.78;100.00
11710;BME280;5911;51.036;6.972;2023-06-24T02:34:34;101593.56;;;20.74;100.00
11710;BME280;5911;51.036;6.972;2023-06-24T02:37:02;101593.22;;;20.77;100.00
11710;BME280;5911;51.036;6.972;2023-06-24T02:39:32;101590.03;;;20.74;100.00
11710;BME280;5911;51.036;6.972;2023-06-24T02:42:00;101589.88;;;20.75;100.00
11710;BME280;5911;51.036;6.972;2023-06-24T02:44:27;101589.34;;;20.71;100.00
11710;BME280;5911;51.036;6.972;2023-06-24T02:46:55;101592.22;;;20.70;100.00
11710;BME280;5911;51.036;6.972;2023-06-24T02:49:26;101593.22;;;20.69;100.00
11710;BME280;5911;51.036;6.972;2023-06-24T02:51:54;101601.25;;;20.69;100.00
11710;BME280;5911;51.036;6.972;2023-06-24T02:54:22;101601.41;;;20.67;100.00
11710;BME280;5911;51.036;6.972;2023-06-24T02:57:17;101597.06;;;20.66;100.00
11710;BME280;5911;51.036;6.972;2023-06-24T03:00:12;101596.75;;;20.61;100.00
11710;BME280;5911;51.036;6.972;2023-06-24T03:03:12;101595.72;;;20.62;100.00
11710;BME280;5911;51.036;6.972;2023-06-24T03:05:48;101593.69;;;20.64;100.00
11710;BME280;5911;51.036;6.972;2023-06-24T03:08:18;101589.88;;;20.59;100.00
11710;BME280;5911;51.036;6.972;2023-06-24T03:10:49;101592.53;;;20.59;100.00
11710;BME280;5911;51.036;6.972;2023-06-24T03:13:20;101589.03;;;20.58;100.00
11710;BME280;5911;51.036;6.972;2023-06-24T03:16:12;101540.53;;;20.27;100.00
11710;BME280;5911;51.036;6.972;2023-06-24T03:18:49;101593.03;;;20.54;100.00
11710;BME280;5911;51.036;6.972;2023-06-24T03:21:19;101587.84;;;20.53;100.00
11710;BME280;5911;51.036;6.972;2023-06-24T03:23:48;101592.53;;;20.51;100.00
11710;BME280;5911;51.036;6.972;2023-06-24T03:26:16;101600.06;;;20.55;100.00
11710;BME280;5911;51.036;6.972;2023-06-24T03:28:44;101606.13;;;20.57;100.00
11710;BME280;5911;51.036;6.972;2023-06-24T03:31:16;101605.44;;;20.55;100.00
11710;BME280;5911;51.036;6.972;2023-06-24T03:33:44;101609.28;;;20.53;100.00
11710;BME280;5911;51.036;6.972;2023-06-24T03:36:15;101609.59;;;20.50;100.00
11710;BME280;5911;51.036;6.972;2023-06-24T03:38:45;101617.84;;;20.56;100.00
11710;BME280;5911;51.036;6.972;2023-06-24T03:41:13;101619.69;;;20.56;100.00
11710;BME280;5911;51.036;6.972;2023-06-24T03:43:40;101617.00;;;20.56;100.00
11710;BME280;5911;51.036;6.972;2023-06-24T03:46:10;101618.16;;;20.53;100.00
11710;BME280;5911;51.036;6.972;2023-06-24T03:48:38;101605.59;;;20.54;100.00
11710;BME280;5911;51.036;6.972;2023-06-24T03:51:06;101607.09;;;20.48;100.00
11710;BME280;5911;51.036;6.972;2023-06-24T03:53:36;101615.66;;;20.52;100.00
11710;BME280;5911;51.036;6.972;2023-06-24T03:56:06;101601.91;;;20.47;100.00
11710;BME280;5911;51.036;6.972;2023-06-24T03:58:33;101611.44;;;20.49;100.00
11710;BME280;5911;51.036;6.972;2023-06-24T04:01:02;101612.28;;;20.50;100.00
11710;BME280;5911;51.036;6.972;2023-06-24T04:03:30;101610.28;;;20.52;100.00
11710;BME280;5911;51.036;6.972;2023-06-24T04:05:59;101606.44;;;20.54;100.00
11710;BME280;5911;51.036;6.972;2023-06-24T04:08:28;101613.31;;;20.57;100.00
11710;BME280;5911;51.036;6.972;2023-06-24T04:10:56;101618.34;;;20.60;100.00
11710;BME280;5911;51.036;6.972;2023-06-24T04:13:27;101624.88;;;20.57;100.00
11710;BME280;5911;51.036;6.972;2023-06-24T04:15:55;101632.56;;;20.52;100.00
11710;BME280;5911;51.036;6.972;2023-06-24T04:18:23;101632.25;;;20.55;100.00
11710;BME280;5911;51.036;6.972;2023-06-24T04:20:51;101637.44;;;20.65;100.00
11710;BME280;5911;51.036;6.972;2023-06-24T04:23:19;101637.44;;;20.57;100.00
11710;BME280;5911;51.036;6.972;2023-06-24T04:25:47;101646.16;;;20.59;100.00
11710;BME280;5911;51.036;6.972;2023-06-24T04:28:15;101647.84;;;20.60;100.00
11710;BME280;5911;51.036;6.972;2023-06-24T04:30:44;101649.00;;;20.65;100.00
11710;BME280;5911;51.036;6.972;2023-06-24T04:33:12;101644.50;;;20.66;100.00
11710;BME280;5911;51.036;6.972;2023-06-24T04:35:39;101648.53;;;20.70;100.00
11710;BME280;5911;51.036;6.972;2023-06-24T04:38:07;101659.09;;;20.71;100.00
11710;BME280;5911;51.036;6.972;2023-06-24T04:40:35;101650.03;;;20.73;100.00
11710;BME280;5911;51.036;6.972;2023-06-24T04:43:03;101647.19;;;20.74;100.00
11710;BME280;5911;51.036;6.972;2023-06-24T04:45:31;101638.81;;;20.77;100.00
11710;BME280;5911;51.036;6.972;2023-06-24T04:48:01;101640.16;;;20.81;100.00
11710;BME280;5911;51.036;6.972;2023-06-24T04:50:28;101637.78;;;20.78;100.00
11710;BME280;5911;51.036;6.972;2023-06-24T04:52:56;101645.19;;;20.84;100.00
11710;BME280;5911;51.036;6.972;2023-06-24T04:55:24;101653.22;;;20.84;100.00
11710;BME280;5911;51.036;6.972;2023-06-24T04:57:52;101647.88;;;20.84;100.00
11710;BME280;5911;51.036;6.972;2023-06-24T05:00:20;101644.50;;;20.82;100.00
11710;BME280;5911;51.036;6.972;2023-06-24T05:02:49;101653.88;;;20.78;100.00
11710;BME280;5911;51.036;6.972;2023-06-24T05:05:19;101639.47;;;20.79;100.00
11710;BME280;5911;51.036;6.972;2023-06-24T05:07:47;101640.97;;;20.82;100.00
11710;BME280;5911;51.036;6.972;2023-06-24T05:10:16;101643.00;;;20.80;100.00
11710;BME280;5911;51.036;6.972;2023-06-24T05:12:43;101642.81;;;20.81;100.00
11710;BME280;5911;51.036;6.972;2023-06-24T05:15:11;101649.53;;;20.85;100.00
11710;BME280;5911;51.036;6.972;2023-06-24T05:17:39;101648.03;;;20.83;100.00
11710;BME280;5911;51.036;6.972;2023-06-24T05:20:08;101640.81;;;20.83;100.00
11710;BME280;5911;51.036;6.972;2023-06-24T05:22:38;101643.34;;;20.85;100.00
11710;BME280;5911;51.036;6.972;2023-06-24T05:25:06;101622.72;;;20.69;100.00
11710;BME280;5911;51.036;6.972;2023-06-24T05:27:34;101644.34;;;20.84;100.00
11710;BME280;5911;51.036;6.972;2023-06-24T05:30:02;101640.66;;;20.85;100.00
11710;BME280;5911;51.036;6.972;2023-06-24T05:32:30;101646.69;;;20.87;100.00
11710;BME280;5911;51.036;6.972;2023-06-24T05:34:58;101633.47;;;20.77;100.00
11710;BME280;5911;51.036;6.972;2023-06-24T05:37:26;101644.19;;;20.85;100.00
11710;BME280;5911;51.036;6.972;2023-06-24T05:39:55;101647.22;;;20.90;100.00
11710;BME280;5911;51.036;6.972;2023-06-24T05:42:28;101642.53;;;20.92;100.00
11710;BME280;5911;51.036;6.972;2023-06-24T05:44:56;101652.72;;;20.97;100.00
11710;BME280;5911;51.036;6.972;2023-06-24T05:47:25;101647.53;;;20.95;100.00
11710;BME280;5911;51.036;6.972;2023-06-24T05:50:02;101650.19;;;20.95;100.00
11710;BME280;5911;51.036;6.972;2023-06-24T05:52:30;101658.59;;;21.00;100.00
11710;BME280;5911;51.036;6.972;2023-06-24T05:54:59;101644.19;;;21.01;100.00
11710;BME280;5911;51.036;6.972;2023-06-24T05:57:27;101655.59;;;21.03;100.00
11710;BME280;5911;51.036;6.972;2023-06-24T05:59:55;101647.53;;;21.03;100.00
11710;BME280;5911;51.036;6.972;2023-06-24T06:02:23;101641.84;;;21.06;100.00
11710;BME280;5911;51.036;6.972;2023-06-24T06:04:51;101645.69;;;21.12;100.00
11710;BME280;5911;51.036;6.972;2023-06-24T06:07:18;101645.16;;;21.08;100.00
11710;BME280;5911;51.036;6.972;2023-06-24T06:09:47;101649.72;;;21.16;100.00
11710;BME280;5911;51.036;6.972;2023-06-24T06:12:21;101657.59;;;21.18;100.00
11710;BME280;5911;51.036;6.972;2023-06-24T06:14:48;101655.63;;;21.20;100.00
11710;BME280;5911;51.036;6.972;2023-06-24T06:17:16;101656.28;;;21.22;100.00
11710;BME280;5911;51.036;6.972;2023-06-24T06:19:44;101668.03;;;21.21;100.00
11710;BME280;5911;51.036;6.972;2023-06-24T06:22:16;101647.19;;;21.15;100.00
11710;BME280;5911;51.036;6.972;2023-06-24T06:24:44;101665.50;;;21.27;100.00
11710;BME280;5911;51.036;6.972;2023-06-24T06:27:13;101664.00;;;21.33;100.00
11710;BME280;5911;51.036;6.972;2023-06-24T06:29:42;101671.38;;;21.31;100.00
11710;BME280;5911;51.036;6.972;2023-06-24T06:32:09;101669.19;;;21.34;100.00
11710;BME280;5911;51.036;6.972;2023-06-24T06:34:38;101675.22;;;21.36;100.00
11710;BME280;5911;51.036;6.972;2023-06-24T06:37:06;101679.06;;;21.42;100.00
11710;BME280;5911;51.036;6.972;2023-06-24T06:39:34;101681.25;;;21.47;100.00
11710;BME280;5911;51.036;6.972;2023-06-24T06:42:02;101659.97;;;21.37;100.00
11710;BME280;5911;51.036;6.972;2023-06-24T06:44:33;101674.38;;;21.52;100.00
11710;BME280;5911;51.036;6.972;2023-06-24T06:47:02;101667.31;;;21.51;100.00
11710;BME280;5911;51.036;6.972;2023-06-24T06:49:30;101665.66;;;21.50;100.00
11710;BME280;5911;51.036;6.972;2023-06-24T06:51:58;101659.25;;;21.43;100.00
11710;BME280;5911;51.036;6.972;2023-06-24T06:54:25;101682.06;;;21.55;100.00
11710;BME280;5911;51.036;6.972;2023-06-24T06:56:53;101657.59;;;21.42;100.00
11710;BME280;5911;51.036;6.972;2023-06-24T06:59:22;101684.06;;;21.61;100.00
11710;BME280;5911;51.036;6.972;2023-06-24T07:01:52;101682.06;;;21.63;100.00
11710;BME280;5911;51.036;6.972;2023-06-24T07:04:22;101681.06;;;21.64;100.00
11710;BME280;5911;51.036;6.972;2023-06-24T07:06:50;101687.75;;;21.68;100.00
11710;BME280;5911;51.036;6.972;2023-06-24T07:09:19;101691.75;;;21.72;100.00
11710;BME280;5911;51.036;6.972;2023-06-24T07:11:47;101692.94;;;21.70;100.00
11710;BME280;5911;51.036;6.972;2023-06-24T07:14:15;101690.75;;;21.82;100.00
11710;BME280;5911;51.036;6.972;2023-06-24T07:16:47;101696.97;;;21.82;100.00
11710;BME280;5911;51.036;6.972;2023-06-24T07:19:15;101696.28;;;21.80;100.00
11710;BME280;5911;51.036;6.972;2023-06-24T07:21:44;101689.41;;;21.77;100.00
11710;BME280;5911;51.036;6.972;2023-06-24T07:24:12;101689.91;;;21.81;100.00
11710;BME280;5911;51.036;6.972;2023-06-24T07:26:39;101692.59;;;21.81;100.00
11710;BME280;5911;51.036;6.972;2023-06-24T07:29:07;101688.72;;;21.84;100.00
11710;BME280;5911;51.036;6.972;2023-06-24T07:31:36;101699.78;;;21.89;100.00
11710;BME280;5911;51.036;6.972;2023-06-24T07:34:04;101698.44;;;21.93;100.00
11710;BME280;5911;51.036;6.972;2023-06-24T07:36:32;101696.41;;;21.95;100.00
11710;BME280;5911;51.036;6.972;2023-06-24T07:39:01;101695.06;;;21.99;100.00
11710;BME280;5911;51.036;6.972;2023-06-24T07:41:30;101693.72;;;22.03;100.00
11710;BME280;5911;51.036;6.972;2023-06-24T07:43:57;101699.41;;;22.08;100.00
11710;BME280;5911;51.036;6.972;2023-06-24T07:46:25;101700.09;;;22.10;100.00
11710;BME280;5911;51.036;6.972;2023-06-24T07:48:54;101699.41;;;22.08;100.00
11710;BME280;5911;51.036;6.972;2023-06-24T07:51:22;101698.06;;;22.12;99.95
11710;BME280;5911;51.036;6.972;2023-06-24T07:53:50;101695.56;;;22.10;96.62
11710;BME280;5911;51.036;6.972;2023-06-24T07:56:19;101696.06;;;22.14;98.77
11710;BME280;5911;51.036;6.972;2023-06-24T07:58:47;101661.13;;;21.98;98.17
11710;BME280;5911;51.036;6.972;2023-06-24T08:01:15;101697.06;;;22.13;95.57
11710;BME280;5911;51.036;6.972;2023-06-24T08:03:42;101694.38;;;22.13;94.47
11710;BME280;5911;51.036;6.972;2023-06-24T08:06:11;101699.03;;;22.19;95.84
11710;BME280;5911;51.036;6.972;2023-06-24T08:08:38;101695.00;;;22.23;95.30
11710;BME280;5911;51.036;6.972;2023-06-24T08:11:06;101685.25;;;22.22;95.75
11710;BME280;5911;51.036;6.972;2023-06-24T08:13:35;101694.75;;;22.33;97.40
11710;BME280;5911;51.036;6.972;2023-06-24T08:16:03;101690.91;;;22.35;97.99
11710;BME280;5911;51.036;6.972;2023-06-24T08:18:31;101695.94;;;22.38;94.16
11710;BME280;5911;51.036;6.972;2023-06-24T08:20:59;101685.84;;;22.40;97.18
11710;BME280;5911;51.036;6.972;2023-06-24T08:23:27;101689.84;;;22.44;97.59
11710;BME280;5911;51.036;6.972;2023-06-24T08:25:56;101682.41;;;22.46;100.00
11710;BME280;5911;51.036;6.972;2023-06-24T08:28:43;101682.81;;;22.43;98.32
11710;BME280;5911;51.036;6.972;2023-06-24T08:31:10;101684.47;;;22.44;95.52
11710;BME280;5911;51.036;6.972;2023-06-24T08:33:39;101676.34;;;22.53;97.10
11710;BME280;5911;51.036;6.972;2023-06-24T08:36:06;101680.72;;;22.54;94.96
11710;BME280;5911;51.036;6.972;2023-06-24T08:38:34;101680.38;;;22.57;95.03
11710;BME280;5911;51.036;6.972;2023-06-24T08:41:02;101672.97;;;22.59;94.72
11710;BME280;5911;51.036;6.972;2023-06-24T08:43:30;101668.03;;;22.62;94.17
11710;BME280;5911;51.036;6.972;2023-06-24T08:45:59;101667.56;;;22.59;95.19
11710;BME280;5911;51.036;6.972;2023-06-24T08:48:29;101665.56;;;22.61;94.33
11710;BME280;5911;51.036;6.972;2023-06-24T08:50:58;101663.50;;;22.63;92.06
11710;BME280;5911;51.036;6.972;2023-06-24T08:53:28;101661.81;;;22.62;92.25
11710;BME280;5911;51.036;6.972;2023-06-24T08:55:57;101666.16;;;22.71;92.98
11710;BME280;5911;51.036;6.972;2023-06-24T08:58:26;101666.47;;;22.76;93.07
11710;BME280;5911;51.036;6.972;2023-06-24T09:00:54;101669.16;;;22.76;95.50
11710;BME280;5911;51.036;6.972;2023-06-24T09:03:23;101667.78;;;22.80;93.57
11710;BME280;5911;51.036;6.972;2023-06-24T09:05:51;101674.84;;;22.81;91.56
11710;BME280;5911;51.036;6.972;2023-06-24T09:08:19;101667.59;;;22.82;91.01
11710;BME280;5911;51.036;6.972;2023-06-24T09:10:53;101662.72;;;22.85;91.47
11710;BME280;5911;51.036;6.972;2023-06-24T09:13:27;101669.03;;;22.92;89.13
11710;BME280;5911;51.036;6.972;2023-06-24T09:16:11;101656.91;;;22.96;90.50
11710;BME280;5911;51.036;6.972;2023-06-24T09:18:40;101656.53;;;22.99;88.28
11710;BME280;5911;51.036;6.972;2023-06-24T09:21:10;101637.22;;;22.96;88.63
11710;BME280;5911;51.036;6.972;2023-06-24T09:23:38;101627.19;;;22.90;90.62
11710;BME280;5911;51.036;6.972;2023-06-24T09:26:09;101650.72;;;23.10;90.55
11710;BME280;5911;51.036;6.972;2023-06-24T09:28:38;101651.72;;;23.09;88.57
11710;BME280;5911;51.036;6.972;2023-06-24T09:31:06;101652.22;;;23.13;88.90
11710;BME280;5911;51.036;6.972;2023-06-24T09:33:46;101650.00;;;23.17;87.66
11710;BME280;5911;51.036;6.972;2023-06-24T09:36:17;101646.38;;;23.24;87.54
11710;BME280;5911;51.036;6.972;2023-06-24T09:38:45;101640.81;;;23.26;88.53
11710;BME280;5911;51.036;6.972;2023-06-24T09:41:13;101637.66;;;23.22;89.29
11710;BME280;5911;51.036;6.972;2023-06-24T09:43:42;101643.50;;;23.26;87.10
11710;BME280;5911;51.036;6.972;2023-06-24T09:46:12;101641.47;;;23.28;83.95
11710;BME280;5911;51.036;6.972;2023-06-24T09:48:40;101642.88;;;23.38;84.19
11710;BME280;5911;51.036;6.972;2023-06-24T09:51:11;101643.81;;;23.45;83.29
11710;BME280;5911;51.036;6.972;2023-06-24T09:53:40;101627.19;;;23.42;83.78
11710;BME280;5911;51.036;6.972;2023-06-24T09:56:10;101632.22;;;23.45;83.55
11710;BME280;5911;51.036;6.972;2023-06-24T09:58:44;101633.53;;;23.49;83.76
11710;BME280;5911;51.036;6.972;2023-06-24T10:01:14;101638.84;;;23.57;83.61
11710;BME280;5911;51.036;6.972;2023-06-24T10:03:44;101642.66;;;23.63;83.67
11710;BME280;5911;51.036;6.972;2023-06-24T10:06:14;101630.56;;;23.73;83.86
11710;BME280;5911;51.036;6.972;2023-06-24T10:08:42;101626.84;;;23.74;82.65
11710;BME280;5911;51.036;6.972;2023-06-24T10:11:09;101618.50;;;23.69;78.75
11710;BME280;5911;51.036;6.972;2023-06-24T10:13:37;101612.84;;;23.64;82.38
11710;BME280;5911;51.036;6.972;2023-06-24T10:16:05;101615.78;;;23.69;80.93
11710;BME280;5911;51.036;6.972;2023-06-24T10:18:38;101606.13;;;23.75;80.08
11710;BME280;5911;51.036;6.972;2023-06-24T10:21:08;101617.38;;;23.78;74.33
11710;BME280;5911;51.036;6.972;2023-06-24T10:23:42;101615.88;;;23.91;74.34
11710;BME280;5911;51.036;6.972;2023-06-24T10:26:14;101610.50;;;23.91;66.79
11710;BME280;5911;51.036;6.972;2023-06-24T10:29:10;101599.72;;;23.91;63.71
11710;BME280;5911;51.036;6.972;2023-06-24T10:31:51;101593.44;;;24.05;67.03
11710;BME280;5911;51.036;6.972;2023-06-24T10:34:39;101596.06;;;24.13;69.43
11710;BME280;5911;51.036;6.972;2023-06-24T10:37:12;101592.50;;;24.27;65.15
11710;BME280;5911;51.036;6.972;2023-06-24T10:39:50;101596.09;;;24.34;63.69
11710;BME280;5911;51.036;6.972;2023-06-24T10:42:37;101592.00;;;24.38;59.97
11710;BME280;5911;51.036;6.972;2023-06-24T10:45:16;101591.34;;;24.58;62.07
11710;BME280;5911;51.036;6.972;2023-06-24T10:47:46;101585.16;;;24.64;59.46
11710;BME280;5911;51.036;6.972;2023-06-24T10:50:15;101586.66;;;24.87;58.79
11710;BME280;5911;51.036;6.972;2023-06-24T10:52:44;101591.91;;;25.23;56.21
11710;BME280;5911;51.036;6.972;2023-06-24T10:55:15;101562.47;;;25.63;56.55
11710;BME280;5911;51.036;6.972;2023-06-24T10:57:43;101583.53;;;26.35;56.85
11710;BME280;5911;51.036;6.972;2023-06-24T11:00:12;101580.66;;;26.70;54.76
11710;BME280;5911;51.036;6.972;2023-06-24T11:02:41;101578.38;;;26.86;51.88
11710;BME280;5911;51.036;6.972;2023-06-24T11:05:10;101577.56;;;26.99;51.74
11710;BME280;5911;51.036;6.972;2023-06-24T11:07:38;101577.97;;;27.16;52.14
11710;BME280;5911;51.036;6.972;2023-06-24T11:10:09;101565.19;;;27.43;51.58
11710;BME280;5911;51.036;6.972;2023-06-24T11:12:42;101571.22;;;27.64;50.18
11710;BME280;5911;51.036;6.972;2023-06-24T11:15:11;101577.84;;;27.75;48.40
11710;BME280;5911;51.036;6.972;2023-06-24T11:17:40;101570.94;;;27.73;46.83
11710;BME280;5911;51.036;6.972;2023-06-24T11:20:11;101569.16;;;27.98;44.48
11710;BME280;5911;51.036;6.972;2023-06-24T11:22:39;101577.28;;;28.05;43.63
11710;BME280;5911;51.036;6.972;2023-06-24T11:25:14;101572.25;;;28.08;43.23
11710;BME280;5911;51.036;6.972;2023-06-24T11:27:43;101575.13;;;28.20;43.02
11710;BME280;5911;51.036;6.972;2023-06-24T11:30:12;101563.22;;;28.52;43.57
11710;BME280;5911;51.036;6.972;2023-06-24T11:32:41;101566.09;;;28.57;43.66
11710;BME280;5911;51.036;6.972;2023-06-24T11:35:11;101561.44;;;28.64;43.35
11710;BME280;5911;51.036;6.972;2023-06-24T11:37:43;101571.06;;;28.92;43.02
11710;BME280;5911;51.036;6.972;2023-06-24T11:40:11;101573.34;;;28.95;42.49
11710;BME280;5911;51.036;6.972;2023-06-24T11:42:42;101570.28;;;29.10;40.80
11710;BME280;5911;51.036;6.972;2023-06-24T11:45:14;101564.44;;;29.06;40.77
11710;BME280;5911;51.036;6.972;2023-06-24T11:47:43;101555.78;;;29.16;41.47
11710;BME280;5911;51.036;6.972;2023-06-24T11:50:11;101575.66;;;29.34;40.82
11710;BME280;5911;51.036;6.972;2023-06-24T11:52:39;101563.31;;;29.38;40.44
11710;BME280;5911;51.036;6.972;2023-06-24T11:55:12;101565.19;;;29.56;39.63
11710;BME280;5911;51.036;6.972;2023-06-24T11:57:50;101567.72;;;29.88;39.91
11710;BME280;5911;51.036;6.972;2023-06-24T12:00:20;101565.84;;;29.88;40.32
11710;BME280;5911;51.036;6.972;2023-06-24T12:02:55;101561.53;;;29.99;41.63
11710;BME280;5911;51.036;6.972;2023-06-24T12:05:26;101550.88;;;29.79;40.31
11710;BME280;5911;51.036;6.972;2023-06-24T12:07:56;101540.81;;;29.98;41.70
11710;BME280;5911;51.036;6.972;2023-06-24T12:10:24;101554.81;;;30.01;40.72
11710;BME280;5911;51.036;6.972;2023-06-24T12:12:55;101540.66;;;29.93;40.32
11710;BME280;5911;51.036;6.972;2023-06-24T12:15:23;101550.94;;;30.09;41.78
11710;BME280;5911;51.036;6.972;2023-06-24T12:17:51;101544.22;;;30.23;40.33
11710;BME280;5911;51.036;6.972;2023-06-24T12:20:19;101536.34;;;30.45;40.58
11710;BME280;5911;51.036;6.972;2023-06-24T12:22:48;101531.44;;;30.65;41.86
11710;BME280;5911;51.036;6.972;2023-06-24T12:25:16;101533.31;;;30.76;40.45
11710;BME280;5911;51.036;6.972;2023-06-24T12:27:44;101534.31;;;30.40;39.62
11710;BME280;5911;51.036;6.972;2023-06-24T12:30:14;101535.91;;;30.60;41.37
11710;BME280;5911;51.036;6.972;2023-06-24T12:32:46;101531.19;;;30.55;40.19
11710;BME280;5911;51.036;6.972;2023-06-24T12:35:14;101530.00;;;30.63;40.62
11710;BME280;5911;51.036;6.972;2023-06-24T12:37:42;101517.94;;;30.70;42.21
11710;BME280;5911;51.036;6.972;2023-06-24T12:40:11;101523.72;;;30.74;41.42
11710;BME280;5911;51.036;6.972;2023-06-24T12:42:39;101521.72;;;30.69;41.82
11710;BME280;5911;51.036;6.972;2023-06-24T12:45:08;101512.72;;;30.81;42.04
11710;BME280;5911;51.036;6.972;2023-06-24T12:47:37;101522.41;;;30.76;40.93
11710;BME280;5911;51.036;6.972;2023-06-24T12:50:06;101523.63;;;30.81;40.95
11710;BME280;5911;51.036;6.972;2023-06-24T12:52:36;101532.50;;;30.88;42.15
11710;BME280;5911;51.036;6.972;2023-06-24T12:55:05;101521.97;;;30.80;41.72
11710;BME280;5911;51.036;6.972;2023-06-24T12:57:34;101499.19;;;30.62;40.43
11710;BME280;5911;51.036;6.972;2023-06-24T13:00:04;101512.72;;;30.69;40.65
11710;BME280;5911;51.036;6.972;2023-06-24T13:02:33;101513.66;;;30.86;42.31
11710;BME280;5911;51.036;6.972;2023-06-24T13:05:03;101509.03;;;30.98;41.97
11710;BME280;5911;51.036;6.972;2023-06-24T13:07:31;101505.81;;;30.90;41.19
11710;BME280;5911;51.036;6.972;2023-06-24T13:10:00;101509.97;;;30.92;41.46